sensor_id;sensor_type;location;lat;lon;timestamp;P1;durP1;ratioP1;P2;durP2;ratioP2
67456;SDS011;54319;52.038;4.640;2023-03-04T00:01:22;12.23;;;2.25;;
67456;SDS011;54319;52.038;4.640;2023-03-04T00:03:48;10.07;;;2.35;;
67456;SDS011;54319;52.038;4.640;2023-03-04T00:06:15;9.77;;;2.13;;
67456;SDS011;54319;52.038;4.640;2023-03-04T00:08:42;15.93;;;2.03;;
67456;SDS011;54319;52.038;4.640;2023-03-04T00:11:08;9.18;;;2.00;;
67456;SDS011;54319;52.038;4.640;2023-03-04T00:13:35;9.30;;;1.50;;
67456;SDS011;54319;52.038;4.640;2023-03-04T00:16:02;8.27;;;2.30;;
67456;SDS011;54319;52.038;4.640;2023-03-04T00:18:30;11.52;;;1.70;;
67456;SDS011;54319;52.038;4.640;2023-03-04T00:20:56;13.98;;;2.42;;
67456;SDS011;54319;52.038;4.640;2023-03-04T00:23:23;11.20;;;2.35;;
67456;SDS011;54319;52.038;4.640;2023-03-04T00:25:49;8.50;;;2.13;;
67456;SDS011;54319;52.038;4.640;2023-03-04T00:28:16;8.18;;;2.15;;
67456;SDS011;54319;52.038;4.640;2023-03-04T00:30:43;14.65;;;2.70;;
67456;SDS011;54319;52.038;4.640;2023-03-04T00:33:09;13.77;;;3.10;;
67456;SDS011;54319;52.038;4.640;2023-03-04T00:35:37;9.90;;;2.75;;
67456;SDS011;54319;52.038;4.640;2023-03-04T00:38:04;9.73;;;3.15;;
67456;SDS011;54319;52.038;4.640;2023-03-04T00:40:31;12.88;;;2.65;;
67456;SDS011;54319;52.038;4.640;2023-03-04T00:42:57;7.65;;;2.50;;
67456;SDS011;54319;52.038;4.640;2023-03-04T00:45:24;12.93;;;2.53;;
67456;SDS011;54319;52.038;4.640;2023-03-04T00:47:50;9.98;;;2.58;;
67456;SDS011;54319;52.038;4.640;2023-03-04T00:50:17;5.88;;;2.10;;
67456;SDS011;54319;52.038;4.640;2023-03-04T00:52:46;16.55;;;2.53;;
67456;SDS011;54319;52.038;4.640;2023-03-04T00:55:13;8.20;;;2.05;;
67456;SDS011;54319;52.038;4.640;2023-03-04T00:57:39;9.07;;;1.98;;
67456;SDS011;54319;52.038;4.640;2023-03-04T01:00:07;18.50;;;2.45;;
67456;SDS011;54319;52.038;4.640;2023-03-04T01:02:34;9.98;;;2.20;;
67456;SDS011;54319;52.038;4.640;2023-03-04T01:05:01;11.68;;;3.28;;
67456;SDS011;54319;52.038;4.640;2023-03-04T01:07:27;12.13;;;2.95;;
67456;SDS011;54319;52.038;4.640;2023-03-04T01:09:55;14.32;;;3.15;;
67456;SDS011;54319;52.038;4.640;2023-03-04T01:12:22;10.70;;;2.72;;
67456;SDS011;54319;52.038;4.640;2023-03-04T01:14:48;11.77;;;3.03;;
67456;SDS011;54319;52.038;4.640;2023-03-04T01:17:15;11.40;;;3.30;;
67456;SDS011;54319;52.038;4.640;2023-03-04T01:19:42;14.20;;;3.30;;
67456;SDS011;54319;52.038;4.640;2023-03-04T01:22:08;13.85;;;3.35;;
67456;SDS011;54319;52.038;4.640;2023-03-04T01:24:37;11.95;;;2.60;;
67456;SDS011;54319;52.038;4.640;2023-03-04T01:27:05;12.25;;;3.28;;
67456;SDS011;54319;52.038;4.640;2023-03-04T01:29:32;9.05;;;2.67;;
67456;SDS011;54319;52.038;4.640;2023-03-04T01:31:59;14.68;;;2.83;;
67456;SDS011;54319;52.038;4.640;2023-03-04T01:34:25;9.60;;;2.92;;
67456;SDS011;54319;52.038;4.640;2023-03-04T01:36:52;11.68;;;2.70;;
67456;SDS011;54319;52.038;4.640;2023-03-04T01:39:18;12.73;;;2.95;;
67456;SDS011;54319;52.038;4.640;2023-03-04T01:41:45;12.60;;;2.80;;
67456;SDS011;54319;52.038;4.640;2023-03-04T01:44:13;12.65;;;3.05;;
67456;SDS011;54319;52.038;4.640;2023-03-04T01:46:41;10.25;;;2.65;;
67456;SDS011;54319;52.038;4.640;2023-03-04T01:49:14;9.20;;;2.67;;
67456;SDS011;54319;52.038;4.640;2023-03-04T01:51:46;9.07;;;2.92;;
67456;SDS011;54319;52.038;4.640;2023-03-04T01:54:14;7.63;;;2.35;;
67456;SDS011;54319;52.038;4.640;2023-03-04T01:56:42;11.77;;;2.80;;
67456;SDS011;54319;52.038;4.640;2023-03-04T01:59:11;10.35;;;2.70;;
67456;SDS011;54319;52.038;4.640;2023-03-04T02:01:43;15.02;;;2.28;;
67456;SDS011;54319;52.038;4.640;2023-03-04T02:04:10;7.78;;;2.83;;
67456;SDS011;54319;52.038;4.640;2023-03-04T02:06:38;10.23;;;2.58;;
67456;SDS011;54319;52.038;4.640;2023-03-04T02:09:06;12.95;;;2.60;;
67456;SDS011;54319;52.038;4.640;2023-03-04T02:11:32;13.33;;;2.17;;
67456;SDS011;54319;52.038;4.640;2023-03-04T02:14:01;9.35;;;1.88;;
67456;SDS011;54319;52.038;4.640;2023-03-04T02:16:29;8.18;;;2.08;;
67456;SDS011;54319;52.038;4.640;2023-03-04T02:18:57;8.07;;;2.67;;
67456;SDS011;54319;52.038;4.640;2023-03-04T02:21:25;7.45;;;1.95;;
67456;SDS011;54319;52.038;4.640;2023-03-04T02:23:56;8.38;;;1.98;;
67456;SDS011;54319;52.038;4.640;2023-03-04T02:26:30;7.45;;;1.70;;
67456;SDS011;54319;52.038;4.640;2023-03-04T02:28:59;9.73;;;1.98;;
67456;SDS011;54319;52.038;4.640;2023-03-04T02:31:27;5.50;;;1.65;;
67456;SDS011;54319;52.038;4.640;2023-03-04T02:33:57;13.75;;;3.05;;
67456;SDS011;54319;52.038;4.640;2023-03-04T02:36:25;12.73;;;2.13;;
67456;SDS011;54319;52.038;4.640;2023-03-04T02:38:53;7.65;;;2.00;;
67456;SDS011;54319;52.038;4.640;2023-03-04T02:41:21;8.27;;;1.90;;
67456;SDS011;54319;52.038;4.640;2023-03-04T02:43:52;8.63;;;1.50;;
67456;SDS011;54319;52.038;4.640;2023-03-04T02:46:20;8.73;;;1.73;;
67456;SDS011;54319;52.038;4.640;2023-03-04T02:48:47;10.40;;;2.17;;
67456;SDS011;54319;52.038;4.640;2023-03-04T02:51:14;9.48;;;1.48;;
67456;SDS011;54319;52.038;4.640;2023-03-04T02:53:41;7.40;;;1.42;;
67456;SDS011;54319;52.038;4.640;2023-03-04T02:56:07;8.93;;;1.52;;
67456;SDS011;54319;52.038;4.640;2023-03-04T02:58:34;7.00;;;1.65;;
67456;SDS011;54319;52.038;4.640;2023-03-04T03:01:03;5.00;;;1.45;;
67456;SDS011;54319;52.038;4.640;2023-03-04T03:03:30;7.93;;;1.58;;
67456;SDS011;54319;52.038;4.640;2023-03-04T03:05:57;6.78;;;1.83;;
67456;SDS011;54319;52.038;4.640;2023-03-04T03:08:24;14.27;;;1.67;;
67456;SDS011;54319;52.038;4.640;2023-03-04T03:10:50;9.18;;;1.45;;
67456;SDS011;54319;52.038;4.640;2023-03-04T03:13:17;9.18;;;1.50;;
67456;SDS011;54319;52.038;4.640;2023-03-04T03:15:43;4.38;;;1.05;;
67456;SDS011;54319;52.038;4.640;2023-03-04T03:18:12;8.07;;;1.75;;
67456;SDS011;54319;52.038;4.640;2023-03-04T03:20:39;16.80;;;2.40;;
67456;SDS011;54319;52.038;4.640;2023-03-04T03:23:06;4.63;;;1.60;;
67456;SDS011;54319;52.038;4.640;2023-03-04T03:25:33;7.82;;;1.67;;
67456;SDS011;54319;52.038;4.640;2023-03-04T03:27:59;10.93;;;1.95;;
67456;SDS011;54319;52.038;4.640;2023-03-04T03:30:26;8.82;;;2.38;;
67456;SDS011;54319;52.038;4.640;2023-03-04T03:32:53;5.68;;;2.25;;
67456;SDS011;54319;52.038;4.640;2023-03-04T03:35:21;11.50;;;1.90;;
67456;SDS011;54319;52.038;4.640;2023-03-04T03:37:47;9.48;;;1.98;;
67456;SDS011;54319;52.038;4.640;2023-03-04T03:40:14;5.60;;;1.50;;
67456;SDS011;54319;52.038;4.640;2023-03-04T03:42:41;8.50;;;2.20;;
67456;SDS011;54319;52.038;4.640;2023-03-04T03:45:08;5.72;;;1.77;;
67456;SDS011;54319;52.038;4.640;2023-03-04T03:47:36;7.82;;;1.65;;
67456;SDS011;54319;52.038;4.640;2023-03-04T03:50:03;6.72;;;1.60;;
67456;SDS011;54319;52.038;4.640;2023-03-04T03:52:32;7.82;;;2.10;;
67456;SDS011;54319;52.038;4.640;2023-03-04T03:54:58;5.82;;;1.70;;
67456;SDS011;54319;52.038;4.640;2023-03-04T03:57:26;9.70;;;2.50;;
67456;SDS011;54319;52.038;4.640;2023-03-04T03:59:53;9.20;;;2.05;;
67456;SDS011;54319;52.038;4.640;2023-03-04T04:02:19;8.15;;;2.33;;
67456;SDS011;54319;52.038;4.640;2023-03-04T04:04:47;8.20;;;2.08;;
67456;SDS011;54319;52.038;4.640;2023-03-04T04:07:13;9.10;;;1.70;;
67456;SDS011;54319;52.038;4.640;2023-03-04T04:09:42;5.13;;;1.70;;
67456;SDS011;54319;52.038;4.640;2023-03-04T04:12:08;8.45;;;1.58;;
67456;SDS011;54319;52.038;4.640;2023-03-04T04:14:38;4.63;;;1.40;;
67456;SDS011;54319;52.038;4.640;2023-03-04T04:17:06;6.00;;;1.58;;
67456;SDS011;54319;52.038;4.640;2023-03-04T04:19:33;9.25;;;1.75;;
67456;SDS011;54319;52.038;4.640;2023-03-04T04:22:00;5.83;;;1.83;;
67456;SDS011;54319;52.038;4.640;2023-03-04T04:24:27;10.20;;;1.97;;
67456;SDS011;54319;52.038;4.640;2023-03-04T04:26:55;6.50;;;1.90;;
67456;SDS011;54319;52.038;4.640;2023-03-04T04:29:22;3.67;;;1.80;;
67456;SDS011;54319;52.038;4.640;2023-03-04T04:31:49;6.75;;;2.17;;
67456;SDS011;54319;52.038;4.640;2023-03-04T04:34:16;7.63;;;2.30;;
67456;SDS011;54319;52.038;4.640;2023-03-04T04:36:43;11.55;;;1.98;;
67456;SDS011;54319;52.038;4.640;2023-03-04T04:39:09;8.13;;;1.40;;
67456;SDS011;54319;52.038;4.640;2023-03-04T04:41:37;7.47;;;1.45;;
67456;SDS011;54319;52.038;4.640;2023-03-04T04:44:08;6.40;;;1.42;;
67456;SDS011;54319;52.038;4.640;2023-03-04T04:46:35;11.13;;;1.92;;
67456;SDS011;54319;52.038;4.640;2023-03-04T04:49:02;6.00;;;1.40;;
67456;SDS011;54319;52.038;4.640;2023-03-04T04:51:29;8.70;;;1.98;;
67456;SDS011;54319;52.038;4.640;2023-03-04T04:53:57;3.40;;;1.30;;
67456;SDS011;54319;52.038;4.640;2023-03-04T04:56:24;7.82;;;1.58;;
67456;SDS011;54319;52.038;4.640;2023-03-04T04:58:52;3.97;;;1.50;;
67456;SDS011;54319;52.038;4.640;2023-03-04T05:01:22;4.85;;;1.38;;
67456;SDS011;54319;52.038;4.640;2023-03-04T05:03:49;5.85;;;1.20;;
67456;SDS011;54319;52.038;4.640;2023-03-04T05:08:44;7.47;;;1.60;;
67456;SDS011;54319;52.038;4.640;2023-03-04T05:11:10;6.20;;;1.55;;
67456;SDS011;54319;52.038;4.640;2023-03-04T05:13:37;10.57;;;1.45;;
67456;SDS011;54319;52.038;4.640;2023-03-04T05:16:04;6.95;;;1.40;;
67456;SDS011;54319;52.038;4.640;2023-03-04T05:18:32;4.18;;;1.60;;
67456;SDS011;54319;52.038;4.640;2023-03-04T05:21:00;6.13;;;1.48;;
67456;SDS011;54319;52.038;4.640;2023-03-04T05:23:29;9.48;;;2.00;;
67456;SDS011;54319;52.038;4.640;2023-03-04T05:25:57;10.55;;;1.83;;
67456;SDS011;54319;52.038;4.640;2023-03-04T05:28:24;5.22;;;1.83;;
67456;SDS011;54319;52.038;4.640;2023-03-04T05:30:51;11.18;;;2.60;;
67456;SDS011;54319;52.038;4.640;2023-03-04T05:33:18;8.43;;;2.07;;
67456;SDS011;54319;52.038;4.640;2023-03-04T05:35:47;10.20;;;2.38;;
67456;SDS011;54319;52.038;4.640;2023-03-04T05:38:15;6.88;;;1.77;;
67456;SDS011;54319;52.038;4.640;2023-03-04T05:40:43;4.90;;;1.73;;
67456;SDS011;54319;52.038;4.640;2023-03-04T05:43:11;12.13;;;2.10;;
67456;SDS011;54319;52.038;4.640;2023-03-04T05:45:38;13.73;;;2.08;;
67456;SDS011;54319;52.038;4.640;2023-03-04T05:48:05;7.57;;;2.03;;
67456;SDS011;54319;52.038;4.640;2023-03-04T05:50:34;8.38;;;2.88;;
67456;SDS011;54319;52.038;4.640;2023-03-04T05:53:02;5.30;;;1.50;;
67456;SDS011;54319;52.038;4.640;2023-03-04T05:55:29;8.18;;;1.95;;
67456;SDS011;54319;52.038;4.640;2023-03-04T05:57:55;6.50;;;1.45;;
67456;SDS011;54319;52.038;4.640;2023-03-04T06:00:22;8.82;;;1.88;;
67456;SDS011;54319;52.038;4.640;2023-03-04T06:02:49;5.32;;;1.90;;
67456;SDS011;54319;52.038;4.640;2023-03-04T06:05:16;8.73;;;1.73;;
67456;SDS011;54319;52.038;4.640;2023-03-04T06:07:43;9.07;;;2.83;;
67456;SDS011;54319;52.038;4.640;2023-03-04T06:10:12;7.47;;;1.95;;
67456;SDS011;54319;52.038;4.640;2023-03-04T06:12:41;3.72;;;1.95;;
67456;SDS011;54319;52.038;4.640;2023-03-04T06:15:07;4.78;;;1.50;;
67456;SDS011;54319;52.038;4.640;2023-03-04T06:20:02;6.40;;;1.50;;
67456;SDS011;54319;52.038;4.640;2023-03-04T06:22:30;4.50;;;1.58;;
67456;SDS011;54319;52.038;4.640;2023-03-04T06:24:56;8.20;;;1.60;;
67456;SDS011;54319;52.038;4.640;2023-03-04T06:27:24;9.52;;;1.98;;
67456;SDS011;54319;52.038;4.640;2023-03-04T06:29:51;5.70;;;1.50;;
67456;SDS011;54319;52.038;4.640;2023-03-04T06:32:18;7.28;;;1.67;;
67456;SDS011;54319;52.038;4.640;2023-03-04T06:34:45;6.82;;;1.83;;
67456;SDS011;54319;52.038;4.640;2023-03-04T06:37:12;6.57;;;2.13;;
67456;SDS011;54319;52.038;4.640;2023-03-04T06:39:38;7.10;;;1.92;;
67456;SDS011;54319;52.038;4.640;2023-03-04T06:42:05;8.75;;;1.92;;
67456;SDS011;54319;52.038;4.640;2023-03-04T06:44:33;11.40;;;2.40;;
67456;SDS011;54319;52.038;4.640;2023-03-04T06:47:00;6.53;;;1.70;;
67456;SDS011;54319;52.038;4.640;2023-03-04T06:49:27;6.45;;;1.80;;
67456;SDS011;54319;52.038;4.640;2023-03-04T06:51:54;9.18;;;2.30;;
67456;SDS011;54319;52.038;4.640;2023-03-04T06:54:21;5.70;;;2.00;;
67456;SDS011;54319;52.038;4.640;2023-03-04T06:56:48;10.68;;;2.17;;
67456;SDS011;54319;52.038;4.640;2023-03-04T06:59:15;1.73;;;1.45;;
67456;SDS011;54319;52.038;4.640;2023-03-04T07:01:43;9.43;;;2.08;;
67456;SDS011;54319;52.038;4.640;2023-03-04T07:04:09;7.05;;;2.28;;
67456;SDS011;54319;52.038;4.640;2023-03-04T07:06:38;2.70;;;1.15;;
67456;SDS011;54319;52.038;4.640;2023-03-04T07:09:05;5.70;;;1.77;;
67456;SDS011;54319;52.038;4.640;2023-03-04T07:11:31;6.47;;;1.30;;
67456;SDS011;54319;52.038;4.640;2023-03-04T07:13:58;6.07;;;1.63;;
67456;SDS011;54319;52.038;4.640;2023-03-04T07:16:25;4.53;;;1.30;;
67456;SDS011;54319;52.038;4.640;2023-03-04T07:18:53;10.32;;;1.45;;
67456;SDS011;54319;52.038;4.640;2023-03-04T07:21:20;2.17;;;1.42;;
67456;SDS011;54319;52.038;4.640;2023-03-04T07:23:46;9.85;;;1.40;;
67456;SDS011;54319;52.038;4.640;2023-03-04T07:26:13;7.00;;;1.00;;
67456;SDS011;54319;52.038;4.640;2023-03-04T07:28:40;2.85;;;1.35;;
67456;SDS011;54319;52.038;4.640;2023-03-04T07:31:08;8.23;;;1.17;;
67456;SDS011;54319;52.038;4.640;2023-03-04T07:33:36;7.57;;;1.10;;
67456;SDS011;54319;52.038;4.640;2023-03-04T07:36:04;4.60;;;1.20;;
67456;SDS011;54319;52.038;4.640;2023-03-04T07:38:32;4.25;;;1.20;;
67456;SDS011;54319;52.038;4.640;2023-03-04T07:43:25;1.33;;;0.83;;
67456;SDS011;54319;52.038;4.640;2023-03-04T07:45:57;5.47;;;2.00;;
67456;SDS011;54319;52.038;4.640;2023-03-04T07:48:24;9.55;;;3.40;;
67456;SDS011;54319;52.038;4.640;2023-03-04T07:51:00;9.63;;;2.97;;
67456;SDS011;54319;52.038;4.640;2023-03-04T07:53:30;6.78;;;2.50;;
67456;SDS011;54319;52.038;4.640;2023-03-04T07:55:56;4.18;;;2.25;;
67456;SDS011;54319;52.038;4.640;2023-03-04T07:58:23;4.75;;;1.95;;
67456;SDS011;54319;52.038;4.640;2023-03-04T08:00:50;3.67;;;1.20;;
67456;SDS011;54319;52.038;4.640;2023-03-04T08:03:16;2.80;;;1.20;;
67456;SDS011;54319;52.038;4.640;2023-03-04T08:05:43;3.15;;;1.10;;
67456;SDS011;54319;52.038;4.640;2023-03-04T08:08:09;4.97;;;1.38;;
67456;SDS011;54319;52.038;4.640;2023-03-04T08:10:38;1.30;;;1.20;;
67456;SDS011;54319;52.038;4.640;2023-03-04T08:13:04;3.78;;;1.33;;
67456;SDS011;54319;52.038;4.640;2023-03-04T08:15:31;1.73;;;0.98;;
67456;SDS011;54319;52.038;4.640;2023-03-04T08:20:26;2.35;;;1.45;;
67456;SDS011;54319;52.038;4.640;2023-03-04T08:22:52;7.87;;;1.33;;
67456;SDS011;54319;52.038;4.640;2023-03-04T08:25:19;1.25;;;0.80;;
67456;SDS011;54319;52.038;4.640;2023-03-04T08:27:47;2.13;;;0.93;;
67456;SDS011;54319;52.038;4.640;2023-03-04T08:30:14;2.95;;;0.90;;
67456;SDS011;54319;52.038;4.640;2023-03-04T08:32:42;2.42;;;1.00;;
67456;SDS011;54319;52.038;4.640;2023-03-04T08:37:35;0.85;;;0.80;;
67456;SDS011;54319;52.038;4.640;2023-03-04T08:40:02;3.47;;;1.30;;
67456;SDS011;54319;52.038;4.640;2023-03-04T08:42:29;1.38;;;0.95;;
67456;SDS011;54319;52.038;4.640;2023-03-04T08:44:57;3.80;;;1.13;;
67456;SDS011;54319;52.038;4.640;2023-03-04T08:47:23;1.00;;;0.90;;
67456;SDS011;54319;52.038;4.640;2023-03-04T08:49:50;3.38;;;1.20;;
67456;SDS011;54319;52.038;4.640;2023-03-04T08:52:17;4.22;;;1.00;;
67456;SDS011;54319;52.038;4.640;2023-03-04T08:54:44;1.85;;;0.93;;
67456;SDS011;54319;52.038;4.640;2023-03-04T08:57:10;0.82;;;0.63;;
67456;SDS011;54319;52.038;4.640;2023-03-04T08:59:37;2.03;;;1.30;;
67456;SDS011;54319;52.038;4.640;2023-03-04T09:02:05;4.15;;;1.27;;
67456;SDS011;54319;52.038;4.640;2023-03-04T09:04:32;2.83;;;1.10;;
67456;SDS011;54319;52.038;4.640;2023-03-04T09:06:58;3.35;;;0.80;;
67456;SDS011;54319;52.038;4.640;2023-03-04T09:09:25;0.68;;;0.60;;
67456;SDS011;54319;52.038;4.640;2023-03-04T09:11:52;3.40;;;1.03;;
67456;SDS011;54319;52.038;4.640;2023-03-04T09:14:18;3.55;;;1.13;;
67456;SDS011;54319;52.038;4.640;2023-03-04T09:16:45;2.85;;;0.80;;
67456;SDS011;54319;52.038;4.640;2023-03-04T09:19:13;4.32;;;0.90;;
67456;SDS011;54319;52.038;4.640;2023-03-04T09:21:41;7.95;;;1.13;;
67456;SDS011;54319;52.038;4.640;2023-03-04T09:24:07;2.90;;;1.00;;
67456;SDS011;54319;52.038;4.640;2023-03-04T09:26:34;6.60;;;1.10;;
67456;SDS011;54319;52.038;4.640;2023-03-04T09:29:02;4.38;;;1.10;;
67456;SDS011;54319;52.038;4.640;2023-03-04T09:31:29;2.10;;;1.00;;
67456;SDS011;54319;52.038;4.640;2023-03-04T09:33:56;1.30;;;0.80;;
67456;SDS011;54319;52.038;4.640;2023-03-04T09:36:25;2.53;;;0.95;;
67456;SDS011;54319;52.038;4.640;2023-03-04T09:38:52;1.25;;;0.70;;
67456;SDS011;54319;52.038;4.640;2023-03-04T09:41:19;2.40;;;0.90;;
67456;SDS011;54319;52.038;4.640;2023-03-04T09:43:49;3.47;;;1.17;;
67456;SDS011;54319;52.038;4.640;2023-03-04T09:46:18;2.88;;;0.88;;
67456;SDS011;54319;52.038;4.640;2023-03-04T09:48:52;5.18;;;1.00;;
67456;SDS011;54319;52.038;4.640;2023-03-04T09:51:21;1.42;;;0.60;;
67456;SDS011;54319;52.038;4.640;2023-03-04T09:56:32;2.38;;;0.60;;
67456;SDS011;54319;52.038;4.640;2023-03-04T09:59:02;3.25;;;0.60;;
67456;SDS011;54319;52.038;4.640;2023-03-04T10:01:35;1.38;;;0.60;;
67456;SDS011;54319;52.038;4.640;2023-03-04T10:04:09;3.55;;;1.20;;
67456;SDS011;54319;52.038;4.640;2023-03-04T10:06:40;4.72;;;1.55;;
67456;SDS011;54319;52.038;4.640;2023-03-04T10:11:39;0.93;;;0.70;;
67456;SDS011;54319;52.038;4.640;2023-03-04T10:14:14;2.63;;;0.77;;
67456;SDS011;54319;52.038;4.640;2023-03-04T10:16:54;4.32;;;1.00;;
67456;SDS011;54319;52.038;4.640;2023-03-04T10:19:29;2.47;;;1.00;;
67456;SDS011;54319;52.038;4.640;2023-03-04T10:22:13;5.13;;;1.42;;
67456;SDS011;54319;52.038;4.640;2023-03-04T10:24:46;2.22;;;0.95;;
67456;SDS011;54319;52.038;4.640;2023-03-04T10:27:14;8.07;;;1.50;;
67456;SDS011;54319;52.038;4.640;2023-03-04T10:29:47;3.50;;;1.20;;
67456;SDS011;54319;52.038;4.640;2023-03-04T10:32:15;2.73;;;0.90;;
67456;SDS011;54319;52.038;4.640;2023-03-04T10:34:44;2.10;;;1.05;;
67456;SDS011;54319;52.038;4.640;2023-03-04T10:37:11;4.13;;;1.55;;
67456;SDS011;54319;52.038;4.640;2023-03-04T10:39:38;2.85;;;1.10;;
67456;SDS011;54319;52.038;4.640;2023-03-04T10:42:22;2.97;;;1.02;;
67456;SDS011;54319;52.038;4.640;2023-03-04T10:44:53;4.87;;;1.00;;
67456;SDS011;54319;52.038;4.640;2023-03-04T10:47:22;4.13;;;1.20;;
67456;SDS011;54319;52.038;4.640;2023-03-04T10:49:50;3.55;;;0.90;;
67456;SDS011;54319;52.038;4.640;2023-03-04T10:52:22;2.72;;;0.70;;
67456;SDS011;54319;52.038;4.640;2023-03-04T10:54:54;1.17;;;0.75;;
67456;SDS011;54319;52.038;4.640;2023-03-04T10:57:25;1.77;;;0.85;;
67456;SDS011;54319;52.038;4.640;2023-03-04T10:59:59;3.15;;;1.00;;
67456;SDS011;54319;52.038;4.640;2023-03-04T11:02:27;2.15;;;0.85;;
67456;SDS011;54319;52.038;4.640;2023-03-04T11:04:56;1.33;;;0.70;;
67456;SDS011;54319;52.038;4.640;2023-03-04T11:07:31;3.20;;;0.90;;
67456;SDS011;54319;52.038;4.640;2023-03-04T11:10:06;2.67;;;0.70;;
67456;SDS011;54319;52.038;4.640;2023-03-04T11:12:35;3.83;;;1.27;;
67456;SDS011;54319;52.038;4.640;2023-03-04T11:15:03;5.40;;;0.90;;
67456;SDS011;54319;52.038;4.640;2023-03-04T11:17:45;4.53;;;1.10;;
67456;SDS011;54319;52.038;4.640;2023-03-04T11:20:16;3.30;;;1.17;;
67456;SDS011;54319;52.038;4.640;2023-03-04T11:22:50;4.07;;;1.25;;
67456;SDS011;54319;52.038;4.640;2023-03-04T11:25:20;3.90;;;1.10;;
67456;SDS011;54319;52.038;4.640;2023-03-04T11:27:53;2.10;;;0.90;;
67456;SDS011;54319;52.038;4.640;2023-03-04T11:30:28;6.80;;;2.13;;
67456;SDS011;54319;52.038;4.640;2023-03-04T11:33:01;3.78;;;1.30;;
67456;SDS011;54319;52.038;4.640;2023-03-04T11:35:38;2.45;;;1.15;;
67456;SDS011;54319;52.038;4.640;2023-03-04T11:38:14;3.85;;;1.33;;
67456;SDS011;54319;52.038;4.640;2023-03-04T11:40:44;5.50;;;1.40;;
67456;SDS011;54319;52.038;4.640;2023-03-04T11:43:16;2.95;;;1.00;;
67456;SDS011;54319;52.038;4.640;2023-03-04T11:48:44;3.17;;;1.15;;
67456;SDS011;54319;52.038;4.640;2023-03-04T11:51:19;0.85;;;0.65;;
67456;SDS011;54319;52.038;4.640;2023-03-04T11:56:48;7.00;;;1.40;;
67456;SDS011;54319;52.038;4.640;2023-03-04T11:59:34;1.35;;;0.85;;
67456;SDS011;54319;52.038;4.640;2023-03-04T12:02:23;4.55;;;1.48;;
67456;SDS011;54319;52.038;4.640;2023-03-04T12:05:04;13.30;;;1.55;;
67456;SDS011;54319;52.038;4.640;2023-03-04T12:07:56;4.40;;;1.05;;
67456;SDS011;54319;52.038;4.640;2023-03-04T12:10:32;2.83;;;0.75;;
67456;SDS011;54319;52.038;4.640;2023-03-04T12:13:12;4.05;;;1.20;;
67456;SDS011;54319;52.038;4.640;2023-03-04T12:15:58;2.45;;;1.00;;
67456;SDS011;54319;52.038;4.640;2023-03-04T12:18:34;3.13;;;0.90;;
67456;SDS011;54319;52.038;4.640;2023-03-04T12:21:16;4.93;;;0.80;;
67456;SDS011;54319;52.038;4.640;2023-03-04T12:24:05;5.47;;;0.93;;
67456;SDS011;54319;52.038;4.640;2023-03-04T12:26:49;2.35;;;1.05;;
67456;SDS011;54319;52.038;4.640;2023-03-04T12:29:24;2.30;;;0.93;;
67456;SDS011;54319;52.038;4.640;2023-03-04T12:32:02;4.22;;;1.23;;
67456;SDS011;54319;52.038;4.640;2023-03-04T12:34:51;5.78;;;0.90;;
67456;SDS011;54319;52.038;4.640;2023-03-04T12:40:34;5.00;;;0.73;;
67456;SDS011;54319;52.038;4.640;2023-03-04T12:43:07;2.25;;;1.30;;
67456;SDS011;54319;52.038;4.640;2023-03-04T12:45:48;4.35;;;1.23;;
67456;SDS011;54319;52.038;4.640;2023-03-04T12:48:29;6.30;;;1.23;;
67456;SDS011;54319;52.038;4.640;2023-03-04T12:51:01;5.85;;;1.63;;
67456;SDS011;54319;52.038;4.640;2023-03-04T12:53:41;7.75;;;2.13;;
67456;SDS011;54319;52.038;4.640;2023-03-04T12:56:21;3.15;;;1.00;;
67456;SDS011;54319;52.038;4.640;2023-03-04T12:58:51;3.17;;;1.30;;
67456;SDS011;54319;52.038;4.640;2023-03-04T13:01:22;1.85;;;1.08;;
67456;SDS011;54319;52.038;4.640;2023-03-04T13:03:56;8.43;;;2.15;;
67456;SDS011;54319;52.038;4.640;2023-03-04T13:06:33;5.65;;;2.05;;
67456;SDS011;54319;52.038;4.640;2023-03-04T13:09:11;3.45;;;1.60;;
67456;SDS011;54319;52.038;4.640;2023-03-04T13:11:49;2.72;;;1.17;;
67456;SDS011;54319;52.038;4.640;2023-03-04T13:14:22;3.25;;;1.40;;
67456;SDS011;54319;52.038;4.640;2023-03-04T13:16:51;3.25;;;0.93;;
67456;SDS011;54319;52.038;4.640;2023-03-04T13:22:26;5.63;;;1.30;;
67456;SDS011;54319;52.038;4.640;2023-03-04T13:24:55;5.97;;;1.50;;
67456;SDS011;54319;52.038;4.640;2023-03-04T13:33:45;2.47;;;1.45;;
67456;SDS011;54319;52.038;4.640;2023-03-04T13:39:35;2.67;;;0.93;;
67456;SDS011;54319;52.038;4.640;2023-03-04T13:42:02;5.70;;;1.52;;
67456;SDS011;54319;52.038;4.640;2023-03-04T13:50:19;10.20;;;2.17;;
67456;SDS011;54319;52.038;4.640;2023-03-04T13:53:25;5.43;;;1.77;;
67456;SDS011;54319;52.038;4.640;2023-03-04T13:56:24;9.50;;;1.92;;
67456;SDS011;54319;52.038;4.640;2023-03-04T13:59:08;5.20;;;1.13;;
67456;SDS011;54319;52.038;4.640;2023-03-04T14:04:36;7.22;;;2.33;;
67456;SDS011;54319;52.038;4.640;2023-03-04T14:07:16;6.25;;;1.23;;
67456;SDS011;54319;52.038;4.640;2023-03-04T14:09:55;8.27;;;1.70;;
67456;SDS011;54319;52.038;4.640;2023-03-04T14:12:25;9.07;;;2.03;;
67456;SDS011;54319;52.038;4.640;2023-03-04T14:14:54;7.20;;;1.52;;
67456;SDS011;54319;52.038;4.640;2023-03-04T14:17:24;5.63;;;1.25;;
67456;SDS011;54319;52.038;4.640;2023-03-04T14:19:53;5.15;;;1.38;;
67456;SDS011;54319;52.038;4.640;2023-03-04T14:22:22;9.98;;;1.90;;
67456;SDS011;54319;52.038;4.640;2023-03-04T14:24:54;6.32;;;2.05;;
67456;SDS011;54319;52.038;4.640;2023-03-04T14:27:26;10.30;;;1.88;;
67456;SDS011;54319;52.038;4.640;2023-03-04T14:29:54;8.65;;;2.08;;
67456;SDS011;54319;52.038;4.640;2023-03-04T14:34:48;11.25;;;2.05;;
67456;SDS011;54319;52.038;4.640;2023-03-04T14:37:18;6.38;;;1.63;;
67456;SDS011;54319;52.038;4.640;2023-03-04T14:39:47;8.23;;;1.58;;
67456;SDS011;54319;52.038;4.640;2023-03-04T14:42:15;11.40;;;2.35;;
67456;SDS011;54319;52.038;4.640;2023-03-04T14:44:46;7.10;;;1.73;;
67456;SDS011;54319;52.038;4.640;2023-03-04T14:47:16;9.48;;;1.95;;
67456;SDS011;54319;52.038;4.640;2023-03-04T14:49:48;11.95;;;1.73;;
67456;SDS011;54319;52.038;4.640;2023-03-04T14:52:31;12.85;;;2.22;;
67456;SDS011;54319;52.038;4.640;2023-03-04T14:55:01;7.65;;;1.70;;
67456;SDS011;54319;52.038;4.640;2023-03-04T14:57:41;10.68;;;1.60;;
67456;SDS011;54319;52.038;4.640;2023-03-04T15:00:14;9.18;;;1.58;;
67456;SDS011;54319;52.038;4.640;2023-03-04T15:02:42;8.98;;;1.30;;
67456;SDS011;54319;52.038;4.640;2023-03-04T15:05:10;7.95;;;1.80;;
67456;SDS011;54319;52.038;4.640;2023-03-04T15:07:48;5.57;;;1.42;;
67456;SDS011;54319;52.038;4.640;2023-03-04T15:10:19;7.68;;;1.50;;
67456;SDS011;54319;52.038;4.640;2023-03-04T15:12:50;5.75;;;1.52;;
67456;SDS011;54319;52.038;4.640;2023-03-04T15:15:39;5.65;;;0.77;;
67456;SDS011;54319;52.038;4.640;2023-03-04T15:18:14;3.97;;;0.88;;
67456;SDS011;54319;52.038;4.640;2023-03-04T15:20:51;4.50;;;1.15;;
67456;SDS011;54319;52.038;4.640;2023-03-04T15:23:22;2.47;;;0.70;;
67456;SDS011;54319;52.038;4.640;2023-03-04T15:25:50;2.65;;;0.70;;
67456;SDS011;54319;52.038;4.640;2023-03-04T15:28:18;2.00;;;0.80;;
67456;SDS011;54319;52.038;4.640;2023-03-04T15:30:47;2.67;;;0.65;;
67456;SDS011;54319;52.038;4.640;2023-03-04T15:33:15;2.25;;;0.73;;
67456;SDS011;54319;52.038;4.640;2023-03-04T15:38:14;5.82;;;1.58;;
67456;SDS011;54319;52.038;4.640;2023-03-04T15:40:41;7.65;;;1.70;;
67456;SDS011;54319;52.038;4.640;2023-03-04T15:43:10;3.33;;;1.15;;
67456;SDS011;54319;52.038;4.640;2023-03-04T15:45:40;10.32;;;2.13;;
67456;SDS011;54319;52.038;4.640;2023-03-04T15:48:09;3.95;;;1.30;;
67456;SDS011;54319;52.038;4.640;2023-03-04T15:50:38;4.03;;;1.25;;
67456;SDS011;54319;52.038;4.640;2023-03-04T15:53:07;4.88;;;1.02;;